createdAt,value
2022-10-15T00:01:52.065Z,100112.63
2022-10-15T00:04:20.881Z,100106.44
2022-10-15T00:06:49.631Z,100096.69
2022-10-15T00:09:18.393Z,100099.28
2022-10-15T00:11:51.492Z,100101.03
2022-10-15T00:14:21.963Z,100093.97
2022-10-15T00:16:50.762Z,100088.66
2022-10-15T00:19:19.786Z,100093.16
2022-10-15T00:21:48.473Z,100085.31
2022-10-15T00:24:17.166Z,100090.63
2022-10-15T00:26:45.802Z,100088.91
2022-10-15T00:29:14.474Z,100080.94
2022-10-15T00:31:44.639Z,100084.38
2022-10-15T00:34:14.847Z,100072.81
2022-10-15T00:36:43.525Z,100073.69
2022-10-15T00:39:12.809Z,100065.81
2022-10-15T00:41:45.073Z,100060.59
2022-10-15T00:44:52.985Z,100053.56
2022-10-15T00:47:29.347Z,100026.00
2022-10-15T00:50:07.920Z,99990.63
2022-10-15T00:52:49.290Z,100031.41
2022-10-15T00:55:24.119Z,100054.66
2022-10-15T00:58:08.094Z,100052.13
2022-10-15T01:00:39.395Z,100051.44
2022-10-15T01:03:10.344Z,100052.44
2022-10-15T01:05:40.862Z,100048.16
2022-10-15T01:08:13.182Z,100049.03
2022-10-15T01:10:56.204Z,100041.00
2022-10-15T01:13:31.768Z,100043.47
2022-10-15T01:16:06.834Z,100046.06
2022-10-15T01:18:44.445Z,100037.16
2022-10-15T01:21:18.415Z,100035.31
2022-10-15T01:24:45.140Z,100040.50
2022-10-15T01:27:30.674Z,100032.41
2022-10-15T01:30:29.019Z,100038.53
2022-10-15T01:33:23.100Z,100000.94
2022-10-15T01:35:55.728Z,100032.09
2022-10-15T01:38:37.618Z,100009.56
2022-10-15T01:41:16.557Z,100029.97
2022-10-15T01:43:52.165Z,100008.53
2022-10-15T01:46:50.438Z,99979.63
2022-10-15T01:49:30.355Z,99996.00
2022-10-15T01:52:05.451Z,99769.56
2022-10-15T01:54:41.816Z,99788.38
2022-10-15T01:57:13.279Z,99969.75
2022-10-15T01:59:45.456Z,99985.38
2022-10-15T02:02:15.496Z,100008.66
2022-10-15T02:04:44.113Z,100004.19
2022-10-15T02:07:22.396Z,99988.69
2022-10-15T02:09:59.640Z,99953.06
2022-10-15T02:12:53.449Z,99996.16
2022-10-15T02:15:36.155Z,99991.72
2022-10-15T02:18:14.978Z,99899.81
2022-10-15T02:20:54.642Z,99980.16
2022-10-15T02:23:28.121Z,99981.78
2022-10-15T02:26:04.289Z,99972.22
2022-10-15T02:28:37.439Z,99819.22
2022-10-15T02:31:11.058Z,99912.78
2022-10-15T02:33:41.781Z,99973.03
2022-10-15T02:36:11.185Z,99965.13
2022-10-15T02:38:44.401Z,99970.38
2022-10-15T02:41:14.071Z,99962.41
2022-10-15T02:43:43.313Z,99969.47
2022-10-15T02:46:17.431Z,99964.97
2022-10-15T02:48:47.961Z,99970.28
2022-10-15T02:51:19.583Z,99964.91
2022-10-15T02:53:48.304Z,99961.38
2022-10-15T02:56:17.106Z,99956.94
2022-10-15T02:58:45.976Z,99957.81
2022-10-15T03:01:14.743Z,99965.72
2022-10-15T03:03:43.593Z,99955.09
2022-10-15T03:06:13.891Z,99948.97
2022-10-15T03:08:44.381Z,99958.66
2022-10-15T03:11:13.028Z,99957.75
2022-10-15T03:13:43.652Z,99955.16
2022-10-15T03:16:13.407Z,99955.09
2022-10-15T03:18:45.721Z,99954.28
2022-10-15T03:21:15.902Z,99958.72
2022-10-15T03:23:45.648Z,99961.47
2022-10-15T03:26:26.080Z,99960.69
2022-10-15T03:28:55.994Z,99959.81
2022-10-15T03:31:35.937Z,99955.34
2022-10-15T03:34:05.948Z,99830.00
2022-10-15T03:36:36.182Z,99948.31
2022-10-15T03:39:08.911Z,99951.94
2022-10-15T03:41:39.718Z,99948.44
2022-10-15T03:44:09.707Z,99935.53
2022-10-15T03:46:42.320Z,99940.66
2022-10-15T03:49:11.032Z,99953.75
2022-10-15T03:51:41.016Z,99959.13
2022-10-15T03:54:12.901Z,99897.00
2022-10-15T03:56:57.579Z,99961.94
2022-10-15T03:59:35.817Z,99959.22
2022-10-15T04:02:05.638Z,99955.59
2022-10-15T04:04:34.520Z,99948.50
2022-10-15T04:07:05.811Z,99953.91
2022-10-15T04:09:35.565Z,99961.94
2022-10-15T04:12:22.931Z,99954.81
2022-10-15T04:14:52.250Z,99954.88
2022-10-15T04:17:21.279Z,99957.53
2022-10-15T04:19:50.671Z,99949.56
2022-10-15T04:22:20.922Z,99946.97
2022-10-15T04:24:53.804Z,99927.19
2022-10-15T04:27:28.189Z,99950.56
2022-10-15T04:30:07.737Z,99941.66
2022-10-15T04:32:39.430Z,99949.56
2022-10-15T04:35:09.287Z,99938.94
2022-10-15T04:38:05.012Z,99910.53
2022-10-15T04:41:05.280Z,99943.38
2022-10-15T04:43:49.270Z,99939.00
2022-10-15T04:46:17.687Z,99943.38
2022-10-15T04:48:46.719Z,99942.59
2022-10-15T04:51:18.867Z,99945.25
2022-10-15T04:54:24.511Z,99942.59
2022-10-15T04:56:59.109Z,99937.31
2022-10-15T04:59:27.753Z,99936.47
2022-10-15T05:02:14.916Z,99940.06
2022-10-15T05:04:44.487Z,99947.19
2022-10-15T05:07:13.061Z,99950.75
2022-10-15T05:09:46.475Z,99949.91
2022-10-15T05:12:15.885Z,99949.84
2022-10-15T05:14:44.492Z,99951.47
2022-10-15T05:17:20.543Z,99952.41
2022-10-15T05:19:49.653Z,99947.97
2022-10-15T05:22:22.679Z,99957.72
2022-10-15T05:24:56.466Z,99956.03
2022-10-15T05:27:37.069Z,99963.19
2022-10-15T05:30:08.161Z,99956.13
2022-10-15T05:32:46.734Z,99954.41
2022-10-15T05:35:19.065Z,99964.16
2022-10-15T05:38:16.860Z,99949.97
2022-10-15T05:40:50.988Z,99955.22
2022-10-15T05:43:24.580Z,99953.38
2022-10-15T05:45:55.631Z,99918.03
2022-10-15T05:48:25.362Z,99964.78
2022-10-15T05:50:54.345Z,99963.78
2022-10-15T05:53:27.702Z,99957.47
2022-10-15T05:56:02.154Z,99941.06
2022-10-15T05:58:37.540Z,99962.41
2022-10-15T06:01:08.830Z,99960.47
2022-10-15T06:03:40.890Z,99962.06
2022-10-15T06:06:16.713Z,99956.53
2022-10-15T06:08:45.733Z,99955.34
2022-10-15T06:11:16.016Z,99912.88
2022-10-15T06:13:46.286Z,99968.22
2022-10-15T06:16:20.821Z,99965.16
2022-10-15T06:18:53.837Z,99965.69
2022-10-15T06:21:22.652Z,99968.28
2022-10-15T06:23:50.847Z,99983.63
2022-10-15T06:26:20.869Z,99986.13
2022-10-15T06:28:49.898Z,99983.38
2022-10-15T06:31:18.221Z,99980.59
2022-10-15T06:33:46.551Z,99971.53
2022-10-15T06:36:15.550Z,99975.69
2022-10-15T06:38:45.090Z,99978.16
2022-10-15T06:41:13.828Z,99976.28
2022-10-15T06:43:45.071Z,99980.75
2022-10-15T06:46:13.986Z,99981.00
2022-10-15T06:48:42.913Z,99989.34
2022-10-15T06:51:13.966Z,99982.47
2022-10-15T06:53:49.020Z,99981.75
2022-10-15T06:56:17.671Z,99982.91
2022-10-15T06:58:47.872Z,99990.31
2022-10-15T07:01:17.076Z,99993.78
2022-10-15T07:03:45.673Z,100003.03
2022-10-15T07:06:14.261Z,100008.66
2022-10-15T07:08:42.610Z,100007.09
2022-10-15T07:11:11.173Z,99990.09
2022-10-15T07:13:40.024Z,100009.53
2022-10-15T07:16:13.156Z,100007.59
2022-10-15T07:18:41.958Z,100014.59
2022-10-15T07:21:11.771Z,99993.72
2022-10-15T07:23:40.468Z,100016.28
2022-10-15T07:26:09.045Z,100014.53
2022-10-15T07:28:37.834Z,100016.38
2022-10-15T07:31:09.520Z,100021.06
2022-10-15T07:33:38.406Z,100017.06
2022-10-15T07:36:09.305Z,100015.69
2022-10-15T07:38:38.440Z,100017.69
2022-10-15T07:41:08.661Z,99833.28
2022-10-15T07:43:44.207Z,100012.44
2022-10-15T07:46:13.855Z,100014.09
2022-10-15T07:48:42.432Z,100021.47
2022-10-15T07:51:13.284Z,100009.97
2022-10-15T07:53:43.749Z,100005.47
2022-10-15T07:56:15.534Z,99994.53
2022-10-15T07:58:51.588Z,99950.72
2022-10-15T08:01:23.039Z,99996.19
2022-10-15T08:03:51.662Z,99998.03
2022-10-15T08:06:20.340Z,100003.81
2022-10-15T08:08:49.005Z,100008.53
2022-10-15T08:11:18.342Z,100014.47
2022-10-15T08:13:48.889Z,100019.53
2022-10-15T08:16:19.602Z,99994.25
2022-10-15T08:19:01.061Z,100001.47
2022-10-15T08:21:29.415Z,99978.56
2022-10-15T08:23:58.128Z,100018.81
2022-10-15T08:26:35.021Z,100018.66
2022-10-15T08:29:04.077Z,100025.38
2022-10-15T08:31:33.111Z,100033.47
2022-10-15T08:34:03.498Z,100033.56
2022-10-15T08:36:32.024Z,100041.75
2022-10-15T08:39:00.690Z,100020.38
2022-10-15T08:41:36.873Z,100052.00
2022-10-15T08:44:07.370Z,100002.84
2022-10-15T08:46:40.496Z,99967.84
2022-10-15T08:49:22.547Z,100052.91
2022-10-15T08:52:00.237Z,99982.97
2022-10-15T08:54:50.423Z,100051.84
2022-10-15T08:57:45.071Z,100054.94
2022-10-15T09:00:20.452Z,100061.16
2022-10-15T09:02:59.935Z,100056.97
2022-10-15T09:05:40.999Z,100053.16
2022-10-15T09:08:27.186Z,100053.19
2022-10-15T09:11:03.620Z,100054.25
2022-10-15T09:16:17.620Z,100059.59
2022-10-15T09:18:49.898Z,100057.22
2022-10-15T09:21:21.550Z,100056.03
2022-10-15T09:23:50.198Z,100055.47
2022-10-15T09:26:29.308Z,100051.28
2022-10-15T09:29:16.253Z,100060.34
2022-10-15T09:31:55.409Z,100037.19
2022-10-15T09:34:39.868Z,100064.09
2022-10-15T09:37:20.583Z,100038.13
2022-10-15T09:40:28.541Z,100066.63
2022-10-15T09:42:59.895Z,100065.75
2022-10-15T09:45:28.548Z,100074.50
2022-10-15T09:48:00.826Z,100076.78
2022-10-15T09:50:41.477Z,100072.88
2022-10-15T09:53:27.408Z,100081.47
2022-10-15T09:56:09.498Z,100065.31
2022-10-15T09:58:46.853Z,100057.75
2022-10-15T10:01:20.717Z,100085.09
2022-10-15T10:03:54.993Z,100079.75
2022-10-15T10:06:25.491Z,100084.81
2022-10-15T10:09:00.980Z,100098.75
2022-10-15T10:11:49.646Z,100098.94
2022-10-15T10:14:28.015Z,100093.38
2022-10-15T10:17:19.339Z,100098.09
2022-10-15T10:20:13.507Z,100097.19
2022-10-15T10:22:50.358Z,100101.69
2022-10-15T10:25:40.105Z,100082.38
2022-10-15T10:28:21.480Z,100057.16
2022-10-15T10:31:03.892Z,100074.91
2022-10-15T10:33:38.534Z,100067.16
2022-10-15T10:36:19.219Z,100092.22
2022-10-15T10:38:59.405Z,100098.25
2022-10-15T10:41:50.662Z,100105.69
2022-10-15T10:44:30.924Z,100103.59
2022-10-15T10:47:15.358Z,100096.47
2022-10-15T10:49:46.557Z,100098.50
2022-10-15T10:52:23.727Z,100083.94
2022-10-15T10:55:00.727Z,100084.50
2022-10-15T10:57:44.513Z,100111.88
2022-10-15T11:00:21.076Z,100109.88
2022-10-15T11:02:50.728Z,100079.22
2022-10-15T11:05:27.578Z,100088.16
2022-10-15T11:08:12.778Z,100106.97
2022-10-15T11:10:50.983Z,100112.56
2022-10-15T11:13:43.504Z,100083.22
2022-10-15T11:16:25.793Z,100095.69
2022-10-15T11:19:19.172Z,100078.31
2022-10-15T11:25:07.518Z,100100.16
2022-10-15T11:27:59.972Z,100110.47
2022-10-15T11:30:47.179Z,100109.84
2022-10-15T11:33:38.556Z,100114.47
2022-10-15T11:36:27.048Z,100116.44
2022-10-15T11:39:15.555Z,100107.59
2022-10-15T11:41:54.883Z,100111.56
2022-10-15T11:44:40.081Z,100110.31
2022-10-15T11:47:33.920Z,100116.13
2022-10-15T11:50:20.185Z,100113.09
2022-10-15T11:53:10.210Z,100110.09
2022-10-15T11:55:47.241Z,100114.69
2022-10-15T11:58:28.411Z,100084.72
2022-10-15T12:01:03.176Z,100107.16
2022-10-15T12:03:41.006Z,100100.66
2022-10-15T12:06:16.851Z,100080.13
2022-10-15T12:08:48.124Z,100104.22
2022-10-15T12:11:38.626Z,100098.91
2022-10-15T12:14:21.614Z,100084.91
2022-10-15T12:17:05.891Z,100075.13
2022-10-15T12:19:43.884Z,100090.78
2022-10-15T12:22:13.802Z,100088.56
2022-10-15T12:24:56.238Z,100085.69
2022-10-15T12:27:29.693Z,100097.56
2022-10-15T12:30:24.026Z,100097.72
2022-10-15T12:32:54.632Z,100092.25
2022-10-15T12:35:32.748Z,100083.13
2022-10-15T12:38:22.994Z,100084.97
2022-10-15T12:40:59.939Z,100094.72
2022-10-15T12:43:31.228Z,100090.00
2022-10-15T12:46:03.107Z,100096.41
2022-10-15T12:48:37.916Z,100084.84
2022-10-15T12:51:41.494Z,100099.22
2022-10-15T12:54:36.699Z,100088.41
2022-10-15T12:57:21.226Z,100081.88
2022-10-15T12:59:58.263Z,100090.00
2022-10-15T13:02:46.505Z,100089.75
2022-10-15T13:05:28.691Z,100091.16
2022-10-15T13:08:01.202Z,100085.41
2022-10-15T13:10:32.543Z,100087.00
2022-10-15T13:13:05.322Z,100090.28
2022-10-15T13:15:35.593Z,100085.56
2022-10-15T13:18:10.179Z,100081.25
2022-10-15T13:20:41.963Z,100074.25
2022-10-15T13:23:30.074Z,100072.91
2022-10-15T13:26:20.391Z,100076.09
2022-10-15T13:28:50.918Z,100080.59
2022-10-15T13:31:29.149Z,100079.88
2022-10-15T13:34:06.707Z,100079.75
2022-10-15T13:36:37.170Z,100080.69
2022-10-15T13:39:21.951Z,100077.28
2022-10-15T13:41:51.621Z,100077.69
2022-10-15T13:44:24.559Z,100083.31
2022-10-15T13:46:54.293Z,100079.75
2022-10-15T13:49:24.202Z,100087.59
2022-10-15T13:51:55.671Z,100094.53
2022-10-15T13:54:31.406Z,100092.47
2022-10-15T13:57:02.555Z,100097.84
2022-10-15T13:59:32.581Z,100103.69
2022-10-15T14:02:04.420Z,100102.38
2022-10-15T14:04:35.122Z,100098.66
2022-10-15T14:07:19.714Z,100089.72
2022-10-15T14:09:50.649Z,100099.31
2022-10-15T14:12:20.302Z,100094.75
2022-10-15T14:14:49.833Z,100103.34
2022-10-15T14:17:27.880Z,100096.44
2022-10-15T14:20:26.726Z,100101.44
2022-10-15T14:22:53.528Z,100098.75
2022-10-15T14:25:25.902Z,100107.16
2022-10-15T14:27:55.021Z,100105.44
2022-10-15T14:30:31.257Z,100099.22
2022-10-15T14:33:00.409Z,100102.25
2022-10-15T14:35:35.125Z,100098.19
2022-10-15T14:38:06.318Z,100098.41
2022-10-15T14:40:36.420Z,100104.78
2022-10-15T14:43:07.466Z,100103.94
2022-10-15T14:45:42.592Z,100105.84
2022-10-15T14:48:18.648Z,100103.28
2022-10-15T14:50:47.779Z,100100.38
2022-10-15T14:53:23.540Z,100103.63
2022-10-15T14:55:57.885Z,100112.66
2022-10-15T14:58:28.933Z,100117.06
2022-10-15T15:01:00.518Z,100111.75
2022-10-15T15:03:35.946Z,100106.28
2022-10-15T15:06:05.153Z,100107.75
2022-10-15T15:08:34.053Z,100104.13
2022-10-15T15:11:07.231Z,100107.16
2022-10-15T15:13:40.732Z,100114.84
2022-10-15T15:16:15.488Z,100108.31
2022-10-15T15:18:46.973Z,100085.69
2022-10-15T15:21:19.615Z,100114.47
2022-10-15T15:23:50.051Z,100112.13
2022-10-15T15:26:22.369Z,100099.91
2022-10-15T15:28:57.014Z,100096.34
2022-10-15T15:31:29.525Z,100098.13
2022-10-15T15:33:59.181Z,100116.50
2022-10-15T15:36:27.914Z,100102.47
2022-10-15T15:38:58.920Z,100098.69
2022-10-15T15:41:33.820Z,100104.50
2022-10-15T15:44:04.691Z,100101.53
2022-10-15T15:46:33.674Z,100099.56
2022-10-15T15:49:02.260Z,100100.34
2022-10-15T15:51:32.906Z,100101.31
2022-10-15T15:54:04.588Z,100106.06
2022-10-15T15:56:35.509Z,100107.50
2022-10-15T15:59:04.368Z,100110.88
2022-10-15T16:01:33.154Z,100106.16
2022-10-15T16:04:03.862Z,100103.03
2022-10-15T16:06:32.968Z,100117.06
2022-10-15T16:09:02.647Z,100117.81
2022-10-15T16:11:33.386Z,100109.75
2022-10-15T16:14:03.767Z,100118.53
2022-10-15T16:16:36.104Z,100119.16
2022-10-15T16:19:05.015Z,100124.19
2022-10-15T16:21:36.201Z,100125.53
2022-10-15T16:24:05.495Z,100125.94
2022-10-15T16:26:36.060Z,100128.84
2022-10-15T16:29:04.879Z,100128.34
2022-10-15T16:31:36.589Z,100132.91
2022-10-15T16:34:06.485Z,100128.75
2022-10-15T16:36:36.233Z,100128.16
2022-10-15T16:39:05.407Z,100138.28
2022-10-15T16:41:35.730Z,100135.75
2022-10-15T16:44:05.817Z,100135.00
2022-10-15T16:46:34.578Z,100142.34
2022-10-15T16:49:03.896Z,100147.06
2022-10-15T16:51:36.477Z,100153.44
2022-10-15T16:54:17.464Z,100074.41
2022-10-15T16:56:55.556Z,100160.28
2022-10-15T16:59:27.490Z,100165.59
2022-10-15T17:01:58.799Z,100169.22
2022-10-15T17:04:28.247Z,100175.47
2022-10-15T17:06:57.093Z,100177.44
2022-10-15T17:09:26.414Z,100182.06
2022-10-15T17:11:57.547Z,100179.66
2022-10-15T17:14:26.910Z,100187.75
2022-10-15T17:16:55.785Z,100188.69
2022-10-15T17:19:29.073Z,100189.69
2022-10-15T17:22:00.579Z,100191.59
2022-10-15T17:24:29.741Z,100199.63
2022-10-15T17:27:03.672Z,100190.00
2022-10-15T17:29:33.839Z,100198.84
2022-10-15T17:32:03.420Z,100202.13
2022-10-15T17:34:32.105Z,100194.75
2022-10-15T17:37:02.123Z,100196.22
2022-10-15T17:39:31.994Z,100199.44
2022-10-15T17:42:03.428Z,100195.84
2022-10-15T17:44:33.293Z,100203.59
2022-10-15T17:47:02.972Z,100197.22
2022-10-15T17:49:31.634Z,100203.31
2022-10-15T17:52:01.234Z,100211.19
2022-10-15T17:54:31.433Z,100214.63
2022-10-15T17:57:03.930Z,100213.63
2022-10-15T17:59:33.027Z,100218.81
2022-10-15T18:02:02.108Z,100212.44
2022-10-15T18:04:35.770Z,100230.00
2022-10-15T18:07:05.091Z,100228.19
2022-10-15T18:09:33.960Z,100228.06
2022-10-15T18:12:05.775Z,100221.00
2022-10-15T18:14:35.593Z,100223.88
2022-10-15T18:17:05.482Z,100235.78
2022-10-15T18:19:34.343Z,100228.25
2022-10-15T18:22:03.251Z,100229.50
2022-10-15T18:24:33.201Z,100225.56
2022-10-15T18:27:07.654Z,100223.41
2022-10-15T18:29:37.079Z,100222.03
2022-10-15T18:32:08.779Z,100224.06
2022-10-15T18:34:38.319Z,100222.44
2022-10-15T18:37:07.024Z,100230.63
2022-10-15T18:39:35.702Z,100233.34
2022-10-15T18:42:04.401Z,100235.31
2022-10-15T18:44:34.420Z,100233.69
2022-10-15T18:47:03.693Z,100230.41
2022-10-15T18:49:33.995Z,100234.09
2022-10-15T18:52:10.690Z,100234.16
2022-10-15T18:54:50.615Z,100234.25
2022-10-15T18:57:19.588Z,100242.31
2022-10-15T18:59:49.661Z,100238.09
2022-10-15T19:02:19.284Z,100235.66
2022-10-15T19:04:49.950Z,100120.56
2022-10-15T19:07:23.404Z,100229.59
2022-10-15T19:09:52.048Z,100227.00
2022-10-15T19:12:25.756Z,100231.44
2022-10-15T19:14:58.970Z,100228.84
2022-10-15T19:17:29.236Z,100229.75
2022-10-15T19:19:58.333Z,100234.34
2022-10-15T19:22:28.644Z,100237.09
2022-10-15T19:24:58.444Z,100244.31
2022-10-15T19:27:28.272Z,100248.69
2022-10-15T19:29:58.534Z,100251.50
2022-10-15T19:32:27.979Z,100248.06
2022-10-15T19:34:57.376Z,100255.25
2022-10-15T19:37:26.224Z,100262.41
2022-10-15T19:39:55.399Z,100258.94
2022-10-15T19:42:27.563Z,100263.56
2022-10-15T19:44:58.737Z,100264.47
2022-10-15T19:47:27.928Z,100261.81
2022-10-15T19:49:56.920Z,100262.72
2022-10-15T19:52:25.361Z,100262.72
2022-10-15T19:54:53.974Z,100257.53
2022-10-15T19:57:23.380Z,100263.78
2022-10-15T19:59:52.464Z,100270.97
2022-10-15T20:02:22.552Z,100273.53
2022-10-15T20:04:51.173Z,100268.31
2022-10-15T20:07:19.866Z,100272.63
2022-10-15T20:09:48.566Z,100267.28
2022-10-15T20:12:17.227Z,100277.16
2022-10-15T20:14:45.783Z,100274.63
2022-10-15T20:17:14.831Z,100282.56
2022-10-15T20:19:44.818Z,100279.09
2022-10-15T20:22:13.600Z,100280.91
2022-10-15T20:24:44.169Z,100285.31
2022-10-15T20:27:12.900Z,100283.66
2022-10-15T20:29:41.460Z,100293.50
2022-10-15T20:32:23.311Z,100253.59
2022-10-15T20:35:03.736Z,100301.28
2022-10-15T20:37:32.445Z,100301.25
2022-10-15T20:40:01.115Z,100303.91
2022-10-15T20:42:29.769Z,100308.38
2022-10-15T20:44:58.057Z,100311.03
2022-10-15T20:47:28.089Z,100317.16
2022-10-15T20:49:56.777Z,100331.31
2022-10-15T20:52:27.456Z,100330.44
2022-10-15T20:54:57.189Z,100333.16
2022-10-15T20:57:25.795Z,100336.88
2022-10-15T20:59:54.463Z,100335.88
2022-10-15T21:02:23.194Z,100333.88
2022-10-15T21:04:53.353Z,100333.56
2022-10-15T21:07:24.526Z,100330.47
2022-10-15T21:09:54.551Z,100330.91
2022-10-15T21:12:23.658Z,100327.97
2022-10-15T21:14:54.339Z,100326.94
2022-10-15T21:17:23.232Z,100334.66
2022-10-15T21:19:52.901Z,100341.47
2022-10-15T21:22:21.790Z,100342.16
2022-10-15T21:24:50.059Z,100330.84
2022-10-15T21:27:20.042Z,100353.16
2022-10-15T21:29:49.523Z,100346.63
2022-10-15T21:32:18.188Z,100352.66
2022-10-15T21:34:46.751Z,100356.00
2022-10-15T21:37:15.400Z,100357.56
2022-10-15T21:39:43.943Z,100360.97
2022-10-15T21:42:12.646Z,100354.63
2022-10-15T21:44:42.274Z,100342.91
2022-10-15T21:47:14.320Z,100346.44
2022-10-15T21:49:45.759Z,100354.63
2022-10-15T21:52:14.776Z,100349.50
2022-10-15T21:54:43.328Z,100355.78
2022-10-15T21:57:11.957Z,100349.66
2022-10-15T21:59:41.590Z,100342.25
2022-10-15T22:02:10.545Z,100367.44
2022-10-15T22:04:40.359Z,100363.56
2022-10-15T22:07:09.233Z,100370.09
2022-10-15T22:09:38.212Z,100373.28
2022-10-15T22:12:07.259Z,100366.78
2022-10-15T22:14:35.808Z,100375.41
2022-10-15T22:17:05.495Z,100368.03
2022-10-15T22:19:34.127Z,100374.03
2022-10-15T22:22:02.680Z,100372.06
2022-10-15T22:24:32.741Z,100374.56
2022-10-15T22:27:01.016Z,100378.88
2022-10-15T22:29:34.397Z,100370.19
2022-10-15T22:32:05.489Z,100375.28
2022-10-15T22:34:34.098Z,100380.66
2022-10-15T22:37:02.375Z,100377.28
2022-10-15T22:39:31.187Z,100380.97
2022-10-15T22:41:59.426Z,100386.97
2022-10-15T22:44:27.657Z,100384.13
2022-10-15T22:46:55.882Z,100387.41
2022-10-15T22:49:26.090Z,100383.69
2022-10-15T22:51:54.676Z,100381.81
2022-10-15T22:54:23.888Z,100379.97
2022-10-15T22:56:53.005Z,100373.91
2022-10-15T22:59:22.215Z,100376.81
2022-10-15T23:01:50.625Z,100381.53
2022-10-15T23:04:18.980Z,100382.63
2022-10-15T23:06:48.888Z,100379.34
2022-10-15T23:09:19.899Z,100371.56
2022-10-15T23:11:48.462Z,100376.13
2022-10-15T23:14:18.520Z,100381.63
2022-10-15T23:16:48.942Z,100372.09
2022-10-15T23:19:19.314Z,100383.28
2022-10-15T23:21:50.928Z,100386.59
2022-10-15T23:24:22.689Z,100397.81
2022-10-15T23:26:51.711Z,100390.56
2022-10-15T23:29:23.232Z,100392.28
2022-10-15T23:31:53.143Z,100384.41
2022-10-15T23:34:23.455Z,100384.56
2022-10-15T23:36:54.023Z,100357.84
2022-10-15T23:39:25.244Z,100383.19
2022-10-15T23:41:54.485Z,100378.84
2022-10-15T23:44:25.588Z,100378.63
2022-10-15T23:46:54.237Z,100387.28
2022-10-15T23:49:22.789Z,100380.09
2022-10-15T23:51:52.492Z,100384.50
2022-10-15T23:54:21.291Z,100391.56
2022-10-15T23:56:49.570Z,100363.19
2022-10-15T23:59:18.510Z,100391.38
